createdAt,value
2018-03-20T00:00:53.568Z,14.37
2018-03-20T00:03:21.907Z,11.43
2018-03-20T00:05:50.313Z,12.87
2018-03-20T00:08:18.669Z,13.57
2018-03-20T00:10:47.015Z,11.03
2018-03-20T00:13:15.363Z,12.00
2018-03-20T00:15:43.732Z,15.97
2018-03-20T00:18:12.078Z,14.67
2018-03-20T00:20:40.435Z,12.07
2018-03-20T00:23:08.792Z,13.83
2018-03-20T00:25:37.228Z,10.60
2018-03-20T00:28:05.746Z,15.80
2018-03-20T00:30:34.584Z,16.93
2018-03-20T00:33:02.971Z,10.83
2018-03-20T00:35:31.500Z,13.47
2018-03-20T00:37:59.853Z,15.13
2018-03-20T00:40:28.195Z,12.90
2018-03-20T00:42:56.553Z,13.80
2018-03-20T00:45:25.025Z,10.47
2018-03-20T00:47:53.477Z,11.03
2018-03-20T00:50:21.815Z,12.97
2018-03-20T00:52:50.457Z,10.87
2018-03-20T00:55:18.826Z,11.77
2018-03-20T00:57:47.151Z,12.77
2018-03-20T01:00:15.509Z,9.63
2018-03-20T01:02:43.873Z,10.73
2018-03-20T01:05:12.259Z,12.40
2018-03-20T01:07:40.663Z,14.47
2018-03-20T01:10:09.009Z,12.47
2018-03-20T01:12:37.352Z,10.83
2018-03-20T01:15:05.758Z,11.03
2018-03-20T01:17:34.402Z,12.97
2018-03-20T01:20:02.761Z,11.77
2018-03-20T01:22:31.108Z,11.37
2018-03-20T01:24:59.458Z,9.50
2018-03-20T01:27:27.800Z,10.20
2018-03-20T01:29:56.143Z,10.33
2018-03-20T01:32:24.504Z,8.67
2018-03-20T01:34:52.853Z,12.30
2018-03-20T01:37:21.200Z,11.27
2018-03-20T01:39:49.548Z,10.03
2018-03-20T01:42:17.897Z,14.63
2018-03-20T01:44:46.247Z,10.13
2018-03-20T01:47:14.592Z,14.13
2018-03-20T01:49:42.953Z,10.53
2018-03-20T01:52:11.302Z,10.63
2018-03-20T01:54:39.674Z,13.33
2018-03-20T01:57:08.197Z,14.80
2018-03-20T01:59:36.879Z,12.73
2018-03-20T02:02:05.227Z,12.23
2018-03-20T02:04:33.563Z,9.60
2018-03-20T02:07:02.038Z,11.10
2018-03-20T02:09:30.380Z,11.50
2018-03-20T02:11:58.729Z,11.17
2018-03-20T02:14:27.105Z,11.10
2018-03-20T02:16:55.449Z,12.53
2018-03-20T02:19:23.808Z,12.27
2018-03-20T02:21:52.148Z,15.37
2018-03-20T02:24:20.508Z,12.27
2018-03-20T02:26:48.915Z,12.80
2018-03-20T02:29:17.649Z,12.47
2018-03-20T02:31:46.073Z,12.83
2018-03-20T02:34:15.177Z,11.33
2018-03-20T02:36:43.512Z,12.80
2018-03-20T02:39:11.946Z,11.10
2018-03-20T02:41:40.563Z,19.47
2018-03-20T02:44:08.915Z,15.63
2018-03-20T02:46:37.316Z,13.47
2018-03-20T02:49:05.641Z,12.83
2018-03-20T02:51:33.979Z,13.67
2018-03-20T02:54:03.074Z,13.17
2018-03-20T02:56:31.408Z,22.00
2018-03-20T02:59:00.233Z,16.33
2018-03-20T03:01:28.678Z,18.47
2018-03-20T03:03:57.204Z,14.50
2018-03-20T03:06:25.553Z,17.60
2018-03-20T03:08:54.018Z,18.53
2018-03-20T03:11:22.471Z,15.80
2018-03-20T03:13:50.867Z,15.47
2018-03-20T03:16:19.234Z,17.93
2018-03-20T03:18:47.576Z,15.20
2018-03-20T03:21:15.944Z,16.83
2018-03-20T03:23:44.316Z,14.50
2018-03-20T03:26:12.640Z,17.13
2018-03-20T03:28:40.998Z,16.77
2018-03-20T03:31:09.447Z,18.00
2018-03-20T03:33:37.791Z,17.87
2018-03-20T03:36:06.312Z,17.53
2018-03-20T03:38:34.671Z,21.97
2018-03-20T03:41:03.017Z,22.97
2018-03-20T03:43:31.383Z,21.57
2018-03-20T03:45:59.730Z,18.73
2018-03-20T03:48:28.126Z,24.17
2018-03-20T03:50:56.484Z,22.93
2018-03-20T03:53:24.932Z,20.40
2018-03-20T03:55:53.237Z,22.30
2018-03-20T03:58:21.575Z,28.43
2018-03-20T04:00:49.922Z,28.30
2018-03-20T04:03:18.286Z,28.50
2018-03-20T04:05:46.664Z,32.50
2018-03-20T04:08:15.081Z,35.37
2018-03-20T04:10:43.445Z,35.73
2018-03-20T04:13:12.048Z,25.13
2018-03-20T04:15:40.404Z,37.37
2018-03-20T04:18:09.002Z,32.43
2018-03-20T04:20:37.354Z,32.40
2018-03-20T04:23:05.693Z,33.63
2018-03-20T04:25:34.043Z,32.80
2018-03-20T04:28:02.396Z,31.67
2018-03-20T04:30:30.820Z,30.40
2018-03-20T04:32:59.196Z,30.40
2018-03-20T04:35:27.704Z,32.07
2018-03-20T04:37:56.034Z,29.67
2018-03-20T04:40:24.389Z,32.03
2018-03-20T04:42:52.749Z,40.13
2018-03-20T04:45:21.091Z,29.63
2018-03-20T04:47:49.890Z,34.50
2018-03-20T04:50:18.271Z,40.40
2018-03-20T04:52:46.908Z,37.40
2018-03-20T04:55:15.280Z,35.07
2018-03-20T04:57:43.632Z,33.33
2018-03-20T05:00:11.975Z,39.43
2018-03-20T05:02:40.449Z,35.20
2018-03-20T05:05:09.123Z,36.93
2018-03-20T05:07:37.488Z,35.70
2018-03-20T05:10:05.835Z,43.43
2018-03-20T05:12:34.198Z,40.30
2018-03-20T05:15:02.598Z,43.77
2018-03-20T05:17:30.916Z,52.57
2018-03-20T05:20:05.263Z,54.67
2018-03-20T05:22:39.424Z,45.40
2018-03-20T05:25:07.881Z,47.73
2018-03-20T05:27:36.538Z,43.53
2018-03-20T05:30:04.882Z,48.00
2018-03-20T05:32:33.220Z,40.60
2018-03-20T05:35:01.637Z,46.27
2018-03-20T05:37:30.581Z,44.90
2018-03-20T05:39:58.945Z,43.37
2018-03-20T05:42:27.291Z,45.50
2018-03-20T05:44:55.739Z,42.57
2018-03-20T05:47:29.770Z,42.03
2018-03-20T05:50:03.784Z,41.83
2018-03-20T05:52:32.626Z,40.57
2018-03-20T05:55:00.968Z,45.43
2018-03-20T05:57:29.324Z,40.37
2018-03-20T05:59:57.749Z,47.57
2018-03-20T06:02:26.705Z,45.83
2018-03-20T06:04:55.038Z,39.80
2018-03-20T06:07:23.409Z,61.17
2018-03-20T06:09:51.758Z,45.27
2018-03-20T06:12:20.192Z,52.83
2018-03-20T06:14:48.548Z,61.07
2018-03-20T06:17:17.132Z,58.27
2018-03-20T06:19:45.515Z,63.17
2018-03-20T06:22:13.863Z,54.63
2018-03-20T06:24:42.252Z,69.73
2018-03-20T06:27:10.630Z,76.90
2018-03-20T06:29:38.973Z,72.23
2018-03-20T06:32:07.346Z,78.83
2018-03-20T06:34:35.714Z,72.17
2018-03-20T06:37:04.685Z,86.30
2018-03-20T06:39:33.023Z,71.20
2018-03-20T06:42:01.368Z,74.37
2018-03-20T06:44:29.724Z,68.30
2018-03-20T06:46:58.064Z,70.77
2018-03-20T06:49:26.417Z,73.53
2018-03-20T06:51:54.760Z,63.77
2018-03-20T06:54:23.124Z,61.43
2018-03-20T06:56:51.496Z,53.03
2018-03-20T06:59:19.825Z,55.77
2018-03-20T07:01:48.172Z,44.20
2018-03-20T07:04:16.539Z,49.10
2018-03-20T07:06:45.179Z,41.03
2018-03-20T07:09:13.880Z,48.43
2018-03-20T07:11:42.226Z,36.90
2018-03-20T07:14:10.601Z,40.17
2018-03-20T07:16:38.955Z,40.43
2018-03-20T07:19:07.427Z,47.27
2018-03-20T07:21:35.801Z,36.00
2018-03-20T07:24:05.301Z,32.77
2018-03-20T07:26:33.788Z,39.60
2018-03-20T07:29:02.312Z,39.17
2018-03-20T07:31:30.803Z,32.27
2018-03-20T07:33:59.154Z,36.13
2018-03-20T07:36:27.531Z,30.90
2018-03-20T07:38:55.964Z,28.80
2018-03-20T07:41:24.295Z,29.53
2018-03-20T07:43:53.038Z,28.00
2018-03-20T07:46:21.425Z,27.53
2018-03-20T07:48:49.744Z,26.03
2018-03-20T07:51:18.200Z,21.57
2018-03-20T07:53:46.569Z,26.90
2018-03-20T07:56:14.917Z,21.47
2018-03-20T07:58:43.283Z,23.27
2018-03-20T08:01:11.908Z,19.83
2018-03-20T08:03:40.260Z,18.63
2018-03-20T08:06:08.606Z,20.40
2018-03-20T08:08:36.991Z,17.03
2018-03-20T08:11:05.312Z,17.90
2018-03-20T08:13:33.656Z,15.13
2018-03-20T08:16:02.010Z,12.90
2018-03-20T08:18:30.371Z,13.77
2018-03-20T08:20:58.789Z,13.27
2018-03-20T08:23:27.162Z,14.63
2018-03-20T08:25:55.581Z,11.93
2018-03-20T08:28:23.931Z,12.80
2018-03-20T08:30:52.304Z,10.90
2018-03-20T08:33:20.633Z,12.57
2018-03-20T08:35:48.989Z,10.30
2018-03-20T08:38:17.324Z,9.20
2018-03-20T08:40:45.664Z,7.27
2018-03-20T08:43:14.015Z,7.37
2018-03-20T08:45:42.536Z,7.00
2018-03-20T08:48:10.873Z,5.93
2018-03-20T08:50:39.518Z,3.83
2018-03-20T08:53:08.014Z,6.13
2018-03-20T08:55:36.349Z,5.57
2018-03-20T08:58:04.793Z,7.03
2018-03-20T09:00:33.186Z,5.23
2018-03-20T09:03:01.489Z,4.33
2018-03-20T09:05:29.812Z,7.30
2018-03-20T09:07:58.153Z,7.10
2018-03-20T09:10:26.481Z,11.10
2018-03-20T09:12:54.827Z,5.63
2018-03-20T09:15:23.159Z,4.37
2018-03-20T09:17:51.537Z,3.73
2018-03-20T09:20:19.872Z,4.53
2018-03-20T09:22:48.208Z,4.70
2018-03-20T09:25:16.571Z,4.30
2018-03-20T09:27:44.927Z,4.23
2018-03-20T09:30:13.281Z,4.73
2018-03-20T09:32:41.608Z,4.60
2018-03-20T09:35:09.976Z,3.53
2018-03-20T09:37:38.303Z,4.60
2018-03-20T09:40:06.635Z,5.87
2018-03-20T09:42:34.963Z,4.77
2018-03-20T09:45:03.343Z,5.27
2018-03-20T09:47:31.816Z,4.53
2018-03-20T09:50:00.487Z,5.03
2018-03-20T09:52:28.824Z,3.33
2018-03-20T09:54:57.197Z,4.93
2018-03-20T09:57:25.528Z,4.20
2018-03-20T09:59:54.510Z,3.60
2018-03-20T10:02:22.859Z,4.00
2018-03-20T10:04:51.649Z,3.00
2018-03-20T10:07:19.977Z,6.87
2018-03-20T10:09:48.331Z,4.10
2018-03-20T10:12:16.668Z,3.70
2018-03-20T10:14:45.373Z,4.13
2018-03-20T10:17:13.722Z,4.27
2018-03-20T10:19:42.070Z,5.17
2018-03-20T10:22:10.427Z,5.30
2018-03-20T10:24:38.761Z,4.20
2018-03-20T10:27:07.108Z,5.83
2018-03-20T10:29:35.472Z,3.77
2018-03-20T10:32:03.844Z,4.47
2018-03-20T10:34:32.248Z,4.87
2018-03-20T10:37:00.598Z,3.17
2018-03-20T10:39:28.960Z,4.37
2018-03-20T10:41:57.298Z,4.67
2018-03-20T10:44:25.839Z,3.87
2018-03-20T10:46:54.173Z,3.57
2018-03-20T10:49:22.664Z,5.17
2018-03-20T10:51:51.005Z,3.13
2018-03-20T10:54:19.440Z,2.37
2018-03-20T10:56:47.839Z,2.93
2018-03-20T10:59:16.543Z,2.70
2018-03-20T11:01:45.777Z,3.03
2018-03-20T11:04:14.180Z,5.17
2018-03-20T11:06:42.515Z,4.57
2018-03-20T11:09:10.856Z,3.63
2018-03-20T11:11:39.197Z,2.70
2018-03-20T11:14:07.582Z,3.43
2018-03-20T11:16:35.934Z,7.43
2018-03-20T11:19:04.282Z,4.67
2018-03-20T11:21:32.720Z,3.77
2018-03-20T11:24:01.652Z,3.70
2018-03-20T11:26:29.983Z,4.07
2018-03-20T11:28:58.526Z,2.83
2018-03-20T11:31:27.115Z,3.67
2018-03-20T11:33:56.036Z,2.77
2018-03-20T11:36:24.391Z,3.10
2018-03-20T11:38:52.727Z,4.07
2018-03-20T11:41:21.090Z,4.83
2018-03-20T11:43:50.090Z,3.90
2018-03-20T11:46:18.657Z,5.50
2018-03-20T11:48:47.046Z,3.13
2018-03-20T11:51:15.397Z,3.27
2018-03-20T11:53:43.785Z,3.77
2018-03-20T11:56:12.153Z,3.47
2018-03-20T11:58:40.528Z,2.47
2018-03-20T12:01:08.889Z,4.87
2018-03-20T12:03:37.220Z,3.43
2018-03-20T12:06:05.588Z,6.07
2018-03-20T12:08:45.616Z,3.73
2018-03-20T12:11:14.192Z,4.87
2018-03-20T12:13:42.564Z,3.73
2018-03-20T12:16:10.989Z,5.90
2018-03-20T12:18:39.319Z,4.37
2018-03-20T12:21:07.743Z,2.43
2018-03-20T12:23:36.086Z,6.30
2018-03-20T12:26:04.431Z,3.03
2018-03-20T12:28:32.782Z,4.57
2018-03-20T12:31:01.134Z,3.50
2018-03-20T12:33:29.562Z,5.30
2018-03-20T12:35:57.905Z,3.20
2018-03-20T12:38:26.258Z,3.87
2018-03-20T12:40:54.613Z,2.93
2018-03-20T12:43:22.999Z,13.13
2018-03-20T12:45:51.481Z,4.70
2018-03-20T12:48:19.916Z,3.30
2018-03-20T12:50:48.261Z,3.83
2018-03-20T12:53:16.608Z,3.70
2018-03-20T12:55:44.954Z,2.57
2018-03-20T12:58:13.287Z,2.83
2018-03-20T13:00:41.648Z,4.93
2018-03-20T13:03:10.049Z,3.07
2018-03-20T13:05:38.727Z,2.23
2018-03-20T13:08:07.086Z,4.27
2018-03-20T13:10:35.415Z,3.30
2018-03-20T13:13:03.774Z,2.37
2018-03-20T13:15:32.172Z,2.77
2018-03-20T13:18:00.868Z,3.37
2018-03-20T13:20:29.413Z,2.73
2018-03-20T13:22:57.749Z,2.80
2018-03-20T13:25:26.715Z,3.03
2018-03-20T13:27:55.090Z,3.60
2018-03-20T13:30:23.564Z,2.70
2018-03-20T13:32:52.120Z,2.78
2018-03-20T13:35:21.258Z,3.67
2018-03-20T13:37:49.668Z,2.72
2018-03-20T13:40:18.045Z,2.67
2018-03-20T13:42:46.564Z,3.20
2018-03-20T13:45:15.030Z,3.57
2018-03-20T13:47:43.438Z,2.50
2018-03-20T13:50:11.814Z,2.90
2018-03-20T13:52:40.606Z,3.08
2018-03-20T13:55:08.989Z,2.10
2018-03-20T13:57:37.384Z,2.00
2018-03-20T14:00:05.851Z,3.25
2018-03-20T14:02:34.239Z,3.33
2018-03-20T14:05:03.765Z,3.83
2018-03-20T14:07:32.196Z,3.13
2018-03-20T14:10:00.532Z,7.70
2018-03-20T14:12:28.930Z,1.93
2018-03-20T14:14:57.325Z,3.65
2018-03-20T14:17:25.668Z,4.15
2018-03-20T14:19:54.120Z,3.87
2018-03-20T14:22:22.516Z,2.83
2018-03-20T14:24:50.891Z,2.40
2018-03-20T14:27:19.257Z,2.95
2018-03-20T14:29:48.276Z,1.83
2018-03-20T14:32:16.624Z,2.25
2018-03-20T14:34:45.053Z,5.50
2018-03-20T14:37:13.480Z,3.95
2018-03-20T14:39:41.883Z,3.33
2018-03-20T14:42:10.497Z,2.05
2018-03-20T14:44:38.858Z,1.58
2018-03-20T14:47:07.250Z,3.08
2018-03-20T14:49:35.726Z,2.50
2018-03-20T14:52:04.094Z,2.33
2018-03-20T14:54:32.464Z,3.28
2018-03-20T14:57:00.791Z,2.65
2018-03-20T14:59:29.785Z,2.65
2018-03-20T15:01:58.147Z,3.95
2018-03-20T15:04:26.520Z,3.67
2018-03-20T15:06:54.897Z,2.58
2018-03-20T15:09:23.265Z,2.12
2018-03-20T15:11:51.613Z,1.85
2018-03-20T15:14:19.954Z,3.45
2018-03-20T15:16:48.545Z,1.25
2018-03-20T15:19:16.885Z,3.83
2018-03-20T15:21:45.254Z,3.53
2018-03-20T15:24:13.764Z,2.25
2018-03-20T15:26:42.134Z,2.35
2018-03-20T15:29:10.490Z,2.42
2018-03-20T15:31:38.853Z,2.72
2018-03-20T15:34:07.703Z,2.87
2018-03-20T15:36:36.214Z,1.00
2018-03-20T15:39:04.590Z,3.62
2018-03-20T15:41:32.953Z,2.17
2018-03-20T15:44:01.361Z,2.30
2018-03-20T15:46:29.726Z,2.67
2018-03-20T15:48:58.158Z,4.93
2018-03-20T15:51:26.533Z,2.20
2018-03-20T15:53:54.863Z,2.27
2018-03-20T15:56:23.269Z,3.17
2018-03-20T15:58:51.736Z,2.30
2018-03-20T16:01:20.088Z,3.60
2018-03-20T16:03:48.460Z,3.20
2018-03-20T16:06:16.806Z,2.53
2018-03-20T16:08:45.153Z,2.97
2018-03-20T16:11:13.520Z,1.87
2018-03-20T16:13:41.875Z,10.47
2018-03-20T16:16:10.248Z,18.10
2018-03-20T16:18:38.723Z,6.53
2018-03-20T16:21:07.064Z,3.17
2018-03-20T16:23:35.421Z,3.40
2018-03-20T16:26:03.788Z,2.20
2018-03-20T16:28:32.121Z,2.20
2018-03-20T16:31:00.505Z,2.60
2018-03-20T16:33:28.837Z,4.10
2018-03-20T16:35:57.209Z,3.80
2018-03-20T16:38:25.566Z,2.53
2018-03-20T16:40:53.905Z,3.13
2018-03-20T16:43:22.438Z,2.80
2018-03-20T16:45:50.783Z,2.40
2018-03-20T16:48:19.159Z,3.57
2018-03-20T16:50:47.564Z,2.27
2018-03-20T16:53:15.909Z,6.97
2018-03-20T16:55:44.249Z,6.70
2018-03-20T16:58:12.594Z,3.50
2018-03-20T17:00:40.950Z,3.77
2018-03-20T17:03:09.312Z,3.00
2018-03-20T17:05:37.660Z,3.07
2018-03-20T17:08:05.990Z,3.93
2018-03-20T17:10:34.555Z,4.13
2018-03-20T17:13:03.001Z,2.60
2018-03-20T17:15:31.392Z,4.73
2018-03-20T17:17:59.743Z,3.93
2018-03-20T17:20:28.137Z,3.07
2018-03-20T17:22:56.477Z,7.70
2018-03-20T17:25:24.941Z,5.00
2018-03-20T17:27:53.366Z,5.70
2018-03-20T17:30:21.696Z,2.83
2018-03-20T17:32:50.057Z,2.60
2018-03-20T17:35:18.443Z,6.23
2018-03-20T17:37:46.815Z,3.93
2018-03-20T17:40:15.154Z,3.77
2018-03-20T17:42:43.497Z,3.50
2018-03-20T17:45:12.002Z,5.10
2018-03-20T17:47:40.323Z,3.67
2018-03-20T17:50:08.691Z,5.47
2018-03-20T17:52:37.027Z,3.70
2018-03-20T17:55:05.370Z,4.13
2018-03-20T17:57:33.813Z,4.87
2018-03-20T18:00:02.161Z,4.13
2018-03-20T18:02:30.641Z,5.57
2018-03-20T18:04:59.008Z,4.73
2018-03-20T18:07:27.354Z,3.93
2018-03-20T18:09:55.714Z,4.30
2018-03-20T18:12:24.069Z,6.10
2018-03-20T18:14:52.429Z,3.80
2018-03-20T18:17:20.793Z,4.40
2018-03-20T18:19:49.198Z,4.63
2018-03-20T18:22:17.565Z,3.37
2018-03-20T18:24:45.979Z,5.77
2018-03-20T18:27:14.319Z,5.50
2018-03-20T18:29:42.665Z,5.60
2018-03-20T18:32:10.996Z,4.07
2018-03-20T18:34:39.424Z,3.87
2018-03-20T18:37:07.763Z,3.77
2018-03-20T18:39:36.114Z,5.13
2018-03-20T18:42:04.789Z,5.50
2018-03-20T18:44:33.139Z,4.47
2018-03-20T18:47:02.277Z,43.53
2018-03-20T18:49:30.630Z,8.73
2018-03-20T18:51:59.044Z,4.00
2018-03-20T18:54:27.538Z,4.00
2018-03-20T18:56:55.948Z,4.60
2018-03-20T18:59:24.338Z,4.23
2018-03-20T19:01:52.691Z,4.20
2018-03-20T19:04:21.256Z,3.30
2018-03-20T19:06:49.624Z,6.47
2018-03-20T19:09:18.048Z,5.50
2018-03-20T19:11:46.377Z,5.40
2018-03-20T19:14:14.808Z,5.57
2018-03-20T19:16:43.161Z,3.13
2018-03-20T19:19:11.488Z,8.47
2018-03-20T19:21:39.893Z,3.17
2018-03-20T19:24:08.648Z,3.30
2018-03-20T19:26:37.101Z,6.27
2018-03-20T19:29:05.507Z,5.77
2018-03-20T19:31:33.972Z,3.93
2018-03-20T19:34:02.325Z,4.33
2018-03-20T19:36:30.666Z,4.53
2018-03-20T19:38:59.032Z,3.77
2018-03-20T19:41:27.482Z,4.00
2018-03-20T19:43:55.938Z,3.07
2018-03-20T19:46:24.277Z,6.17
2018-03-20T19:48:52.743Z,4.37
2018-03-20T19:51:21.110Z,5.13
2018-03-20T19:53:49.486Z,5.47
2018-03-20T19:56:17.921Z,5.50
2018-03-20T19:58:46.278Z,3.27
2018-03-20T20:01:14.622Z,13.63
2018-03-20T20:03:43.008Z,12.53
2018-03-20T20:06:11.445Z,5.47
2018-03-20T20:08:40.062Z,21.53
2018-03-20T20:11:08.390Z,9.20
2018-03-20T20:13:36.773Z,7.80
2018-03-20T20:16:05.488Z,3.73
2018-03-20T20:18:34.326Z,5.00
2018-03-20T20:21:02.654Z,6.90
2018-03-20T20:23:31.106Z,5.70
2018-03-20T20:25:59.683Z,27.17
2018-03-20T20:28:28.057Z,16.60
2018-03-20T20:30:56.426Z,10.83
2018-03-20T20:33:24.902Z,10.93
2018-03-20T20:35:53.249Z,6.23
2018-03-20T20:38:21.607Z,7.80
2018-03-20T20:40:50.136Z,6.23
2018-03-20T20:43:18.482Z,5.07
2018-03-20T20:45:46.855Z,6.00
2018-03-20T20:48:15.238Z,3.83
2018-03-20T20:50:43.587Z,3.50
2018-03-20T20:53:11.926Z,7.63
2018-03-20T20:55:40.309Z,10.93
2018-03-20T20:58:08.726Z,6.90
2018-03-20T21:00:37.052Z,5.93
2018-03-20T21:03:05.419Z,7.27
2018-03-20T21:05:33.768Z,27.07
2018-03-20T21:08:02.207Z,11.33
2018-03-20T21:10:30.519Z,7.80
2018-03-20T21:12:58.960Z,6.70
2018-03-20T21:15:27.463Z,9.43
2018-03-20T21:17:55.977Z,4.57
2018-03-20T21:20:24.301Z,6.17
2018-03-20T21:22:52.910Z,5.13
2018-03-20T21:25:21.438Z,3.10
2018-03-20T21:27:50.103Z,4.00
2018-03-20T21:30:18.464Z,4.67
2018-03-20T21:32:46.847Z,5.60
2018-03-20T21:35:15.220Z,5.27
2018-03-20T21:37:43.627Z,6.50
2018-03-20T21:40:12.435Z,6.67
2018-03-20T21:42:40.819Z,5.37
2018-03-20T21:45:09.200Z,7.57
2018-03-20T21:47:37.560Z,4.80
2018-03-20T21:50:05.913Z,4.93
2018-03-20T21:52:34.699Z,6.10
2018-03-20T21:55:03.039Z,7.00
2018-03-20T21:57:31.404Z,3.80
2018-03-20T21:59:59.758Z,6.50
2018-03-20T22:02:28.116Z,10.97
2018-03-20T22:04:56.708Z,9.03
2018-03-20T22:07:25.335Z,9.17
2018-03-20T22:09:53.662Z,7.10
2018-03-20T22:12:22.046Z,8.03
2018-03-20T22:14:50.388Z,8.67
2018-03-20T22:17:18.789Z,5.90
2018-03-20T22:19:47.144Z,10.27
2018-03-20T22:22:15.495Z,10.90
2018-03-20T22:24:43.842Z,8.57
2018-03-20T22:27:12.173Z,9.07
2018-03-20T22:29:40.550Z,10.13
2018-03-20T22:32:08.920Z,9.20
2018-03-20T22:34:37.252Z,9.00
2018-03-20T22:37:05.665Z,12.00
2018-03-20T22:39:33.999Z,8.47
2018-03-20T22:42:02.651Z,8.50
2018-03-20T22:44:31.000Z,11.30
2018-03-20T22:46:59.365Z,6.50
2018-03-20T22:49:27.752Z,7.60
2018-03-20T22:51:56.110Z,8.63
2018-03-20T22:54:24.444Z,6.60
2018-03-20T22:56:52.775Z,8.20
2018-03-20T22:59:21.141Z,10.83
2018-03-20T23:01:49.483Z,8.10
2018-03-20T23:04:17.815Z,8.33
2018-03-20T23:06:46.186Z,4.80
2018-03-20T23:09:14.531Z,9.07
2018-03-20T23:11:43.133Z,10.70
2018-03-20T23:14:11.529Z,7.13
2018-03-20T23:16:39.836Z,9.83
2018-03-20T23:19:08.166Z,6.33
2018-03-20T23:21:36.822Z,9.30
2018-03-20T23:24:05.358Z,6.17
2018-03-20T23:26:33.708Z,6.83
2018-03-20T23:29:02.059Z,5.63
2018-03-20T23:31:30.395Z,8.87
2018-03-20T23:33:58.748Z,10.93
2018-03-20T23:36:27.104Z,7.40
2018-03-20T23:38:55.638Z,8.47
2018-03-20T23:41:24.003Z,8.87
2018-03-20T23:43:52.349Z,8.40
2018-03-20T23:46:20.702Z,8.70
2018-03-20T23:48:49.032Z,12.33
2018-03-20T23:51:17.481Z,7.17
2018-03-20T23:53:45.824Z,8.73
2018-03-20T23:56:14.180Z,8.20
2018-03-20T23:58:42.517Z,12.23
